Time;durP1;ratioP1;P1;durP2;ratioP2;P2;SDS_P1;SDS_P2;PMS_P1;PMS_P2;Temp;Humidity;BMP_temperature;BMP_pressure;BME280_temperature;BME280_humidity;BME280_pressure;Samples;Min_cycle;Max_cycle;Signal;HPM_P1;HPM_P2
2023/04/10 00:00:19;;;;;;;12.60;11.47;;;6.70;99.90;;;;;;4890569;29;20226;-80
2023/04/10 00:02:47;;;;;;;13.23;11.93;;;6.50;99.90;;;;;;4892968;29;20203;-80
2023/04/10 00:05:14;;;;;;;13.90;12.60;;;6.40;99.90;;;;;;4895826;29;20404;-80
2023/04/10 00:07:42;;;;;;;12.80;11.53;;;6.30;99.90;;;;;;4895305;29;20199;-80
2023/04/10 00:10:09;;;;;;;13.00;11.83;;;6.30;99.90;;;;;;4891863;29;20201;-80
2023/04/10 00:12:37;;;;;;;14.90;13.47;;;6.20;99.90;;;;;;4889420;29;20738;-80
2023/04/10 00:15:04;;;;;;;13.80;12.40;;;6.10;99.90;;;;;;4890025;29;20237;-80
2023/04/10 00:17:31;;;;;;;13.30;11.93;;;6.10;99.90;;;;;;4896233;29;20451;-80
2023/04/10 00:19:59;;;;;;;12.73;11.53;;;6.00;99.90;;;;;;4892866;29;20607;-80
2023/04/10 00:22:26;;;;;;;13.63;12.27;;;6.00;99.90;;;;;;4889835;29;20231;-80
2023/04/10 00:24:54;;;;;;;12.73;11.53;;;5.90;99.90;;;;;;4886420;29;20221;-80
2023/04/10 00:27:21;;;;;;;12.77;11.57;;;5.80;99.90;;;;;;4894485;29;20761;-80
2023/04/10 00:29:48;;;;;;;12.57;11.37;;;5.80;99.90;;;;;;4897898;29;20225;-80
2023/04/10 00:32:15;;;;;;;14.00;12.50;;;5.70;99.90;;;;;;4894606;29;20213;-80
2023/04/10 00:34:42;;;;;;;13.70;12.40;;;5.60;99.90;;;;;;4892656;29;20329;-80
2023/04/10 00:37:08;;;;;;;13.23;12.03;;;5.60;99.90;;;;;;4892092;29;20203;-80
2023/04/10 00:39:35;;;;;;;13.27;11.97;;;5.50;99.90;;;;;;4896299;29;20693;-80
2023/04/10 00:42:08;;;;;;;12.90;11.70;;;5.40;99.90;;;;;;4895169;29;20236;-80
2023/04/10 00:44:36;;;;;;;13.00;11.70;;;5.30;99.90;;;;;;4894094;29;20229;-80
2023/04/10 00:47:03;;;;;;;14.97;13.50;;;5.30;99.90;;;;;;4896063;29;20210;-80
2023/04/10 00:49:31;;;;;;;14.03;12.67;;;5.20;99.90;;;;;;4895645;29;20683;-80
2023/04/10 00:51:58;;;;;;;12.90;11.80;;;5.10;99.90;;;;;;4893323;29;20200;-80
2023/04/10 00:54:25;;;;;;;13.67;12.47;;;5.10;99.90;;;;;;4895037;29;20738;-80
2023/04/10 00:56:52;;;;;;;13.33;12.03;;;5.00;99.90;;;;;;4894208;29;20197;-80
2023/04/10 00:59:22;;;;;;;13.07;11.80;;;5.00;99.90;;;;;;4898333;29;20292;-80
2023/04/10 01:01:49;;;;;;;12.97;11.73;;;4.90;99.90;;;;;;4891615;29;20221;-80
2023/04/10 01:04:16;;;;;;;13.20;11.90;;;4.80;99.90;;;;;;4903727;29;20224;-80
2023/04/10 01:06:54;;;;;;;14.67;13.23;;;4.80;99.90;;;;;;4902776;29;20209;-80
2023/04/10 01:09:35;;;;;;;13.23;12.03;;;4.80;99.90;;;;;;4895275;29;20262;-80
2023/04/10 01:12:11;;;;;;;14.20;12.73;;;4.70;99.90;;;;;;4889826;29;20197;-80
2023/04/10 01:14:48;;;;;;;13.20;12.00;;;4.70;99.90;;;;;;4889361;29;20236;-80
2023/04/10 01:17:21;;;;;;;13.53;12.20;;;4.70;99.90;;;;;;4893014;29;20202;-80
2023/04/10 01:20:06;;;;;;;14.20;12.80;;;4.80;99.90;;;;;;4895694;29;20209;-80
2023/04/10 01:22:39;;;;;;;13.37;12.17;;;4.70;99.90;;;;;;4889144;29;20261;-79
2023/04/10 01:25:39;;;;;;;13.63;12.33;;;4.70;99.90;;;;;;4896908;29;20223;-80
2023/04/10 01:28:21;;;;;;;13.23;12.03;;;4.70;99.90;;;;;;4895358;29;20204;-80
2023/04/10 01:30:53;;;;;;;14.47;13.00;;;4.50;99.90;;;;;;4896403;29;20232;-80
2023/04/10 01:33:22;;;;;;;13.13;11.93;;;4.60;99.90;;;;;;4894875;29;20679;-80
2023/04/10 01:35:53;;;;;;;13.67;12.47;;;4.60;99.90;;;;;;4891239;29;20235;-80
2023/04/10 01:38:23;;;;;;;13.20;12.00;;;4.60;99.90;;;;;;4895193;29;20204;-80
2023/04/10 01:40:54;;;;;;;14.00;12.70;;;4.50;99.90;;;;;;4894209;29;20212;-80
2023/04/10 01:43:31;;;;;;;14.23;12.83;;;4.50;99.90;;;;;;4893334;29;20200;-80
2023/04/10 01:46:02;;;;;;;13.73;12.43;;;4.50;99.90;;;;;;4887287;29;20224;-80
2023/04/10 01:48:29;;;;;;;13.83;12.43;;;4.40;99.90;;;;;;4902435;29;20201;-80
2023/04/10 01:50:58;;;;;;;12.50;11.40;;;4.40;99.90;;;;;;4902618;29;20667;-80
2023/04/10 01:53:25;;;;;;;13.40;12.10;;;4.30;99.90;;;;;;4901105;29;20691;-81
2023/04/10 01:55:53;;;;;;;14.30;12.80;;;4.30;99.90;;;;;;4903995;29;20220;-80
2023/04/10 01:58:20;;;;;;;13.70;12.43;;;4.20;99.90;;;;;;4899525;29;20205;-80
2023/04/10 02:00:47;;;;;;;13.93;12.63;;;4.20;99.90;;;;;;4904940;29;20224;-80
2023/04/10 02:03:17;;;;;;;13.50;12.20;;;4.10;99.90;;;;;;4902655;29;20235;-80
2023/04/10 02:05:54;;;;;;;12.37;11.27;;;4.00;99.90;;;;;;4902222;29;20233;-80
2023/04/10 02:08:27;;;;;;;13.20;12.00;;;4.00;99.90;;;;;;4900703;29;20269;-80
2023/04/10 02:11:02;;;;;;;13.43;12.13;;;3.90;99.90;;;;;;4900670;29;20201;-80
2023/04/10 02:13:30;;;;;;;13.37;12.07;;;3.90;99.90;;;;;;4903545;29;20201;-81
2023/04/10 02:16:00;;;;;;;14.07;12.67;;;3.80;99.90;;;;;;4905030;29;20239;-79
2023/04/10 02:18:29;;;;;;;14.03;12.70;;;3.80;99.90;;;;;;4905300;29;20309;-78
2023/04/10 02:20:56;;;;;;;13.67;12.37;;;3.70;99.90;;;;;;4907466;29;20201;-78
2023/04/10 02:23:23;;;;;;;13.40;12.10;;;3.70;99.90;;;;;;4905424;29;20256;-78
2023/04/10 02:25:50;;;;;;;13.47;12.20;;;3.70;99.90;;;;;;4903767;29;20233;-79
2023/04/10 02:28:17;;;;;;;15.33;13.77;;;3.70;99.90;;;;;;4909838;29;20227;-79
2023/04/10 02:30:44;;;;;;;13.77;12.47;;;3.70;99.90;;;;;;4906773;29;20205;-79
2023/04/10 02:33:12;;;;;;;12.60;11.40;;;3.70;99.90;;;;;;4905934;29;20264;-77
2023/04/10 02:35:41;;;;;;;13.97;12.63;;;3.70;99.90;;;;;;4905188;29;20253;-78
2023/04/10 02:38:08;;;;;;;14.17;12.83;;;3.70;99.90;;;;;;4907489;29;20202;-78
2023/04/10 02:40:37;;;;;;;13.20;12.00;;;3.70;99.90;;;;;;4906556;29;20680;-78
2023/04/10 02:43:12;;;;;;;14.33;13.03;;;3.70;99.90;;;;;;4898294;29;20216;-80
2023/04/10 02:45:40;;;;;;;13.33;12.00;;;3.70;99.90;;;;;;4904912;29;20743;-79
2023/04/10 02:48:10;;;;;;;13.17;11.97;;;3.60;99.90;;;;;;4901556;29;20208;-81
2023/04/10 02:50:37;;;;;;;13.70;12.40;;;3.60;99.90;;;;;;4908964;29;20201;-82
2023/04/10 02:53:06;;;;;;;13.77;12.37;;;3.50;99.90;;;;;;4898281;29;20200;-83
2023/04/10 02:55:33;;;;;;;13.33;12.03;;;3.50;99.90;;;;;;4897046;29;20220;-82
2023/04/10 02:58:00;;;;;;;13.00;11.80;;;3.50;99.90;;;;;;4896888;29;20204;-82
2023/04/10 03:00:27;;;;;;;14.80;13.33;;;3.50;99.90;;;;;;4890694;29;20227;-82
2023/04/10 03:03:33;;;;;;;14.30;12.80;;;3.50;99.90;;;;;;4889173;29;20271;-82
2023/04/10 03:06:00;;;;;;;13.57;12.27;;;3.50;99.90;;;;;;4899198;29;20228;-83
2023/04/10 03:08:32;;;;;;;13.50;12.23;;;3.50;99.90;;;;;;4894956;29;20205;-81
2023/04/10 03:10:59;;;;;;;13.23;12.03;;;3.50;99.90;;;;;;4897925;29;20204;-82
2023/04/10 03:13:26;;;;;;;13.87;12.57;;;3.50;99.90;;;;;;4899760;29;20196;-83
2023/04/10 03:15:52;;;;;;;13.10;11.77;;;3.50;99.90;;;;;;4898751;29;20228;-83
2023/04/10 03:18:20;;;;;;;13.73;12.30;;;3.50;99.90;;;;;;4901108;29;20201;-83
2023/04/10 03:20:50;;;;;;;13.57;12.23;;;3.50;99.90;;;;;;4911430;29;20235;-82
2023/04/10 03:23:20;;;;;;;14.23;12.73;;;3.50;99.90;;;;;;4892843;29;20728;-83
2023/04/10 03:25:52;;;;;;;14.00;12.53;;;3.50;99.90;;;;;;4902688;29;20220;-82
2023/04/10 03:28:20;;;;;;;14.60;13.17;;;3.50;99.90;;;;;;4893147;29;20718;-83
2023/04/10 03:30:48;;;;;;;12.97;11.67;;;3.40;99.90;;;;;;4902015;29;20204;-83
2023/04/10 03:33:14;;;;;;;13.30;11.93;;;3.40;99.90;;;;;;4894605;29;20252;-83
2023/04/10 03:35:41;;;;;;;13.70;12.30;;;3.40;99.90;;;;;;4893846;29;20241;-83
2023/04/10 03:38:08;;;;;;;13.47;12.17;;;3.30;99.90;;;;;;4900212;29;20212;-82
2023/04/10 03:40:36;;;;;;;13.80;12.43;;;3.30;99.90;;;;;;4895205;29;20204;-84
2023/04/10 03:43:09;;;;;;;13.77;12.47;;;3.20;99.90;;;;;;4891717;29;20401;-84
2023/04/10 03:45:36;;;;;;;14.43;13.03;;;3.10;99.90;;;;;;4895499;29;20244;-82
2023/04/10 03:48:06;;;;;;;14.03;12.53;;;3.10;99.90;;;;;;4897724;29;20650;-83
2023/04/10 03:50:41;;;;;;;14.13;12.73;;;3.00;99.90;;;;;;4895076;29;20241;-82
2023/04/10 03:53:08;;;;;;;13.93;12.53;;;3.00;99.90;;;;;;4888956;29;20629;-82
2023/04/10 03:55:35;;;;;;;13.20;12.00;;;3.00;99.90;;;;;;4892690;29;20240;-83
2023/04/10 03:58:04;;;;;;;15.27;13.77;;;3.00;99.90;;;;;;4898991;29;20197;-83
2023/04/10 04:00:33;;;;;;;13.63;12.33;;;3.00;99.90;;;;;;4900108;29;20229;-83
2023/04/10 04:03:09;;;;;;;12.47;11.33;;;3.00;99.90;;;;;;4902876;29;20316;-83
2023/04/10 04:05:52;;;;;;;13.87;12.40;;;3.00;99.90;;;;;;4901145;29;20228;-82
2023/04/10 04:08:24;;;;;;;15.27;13.57;;;3.00;99.90;;;;;;4897727;29;20256;-82
2023/04/10 04:11:06;;;;;;;13.47;12.17;;;2.90;99.90;;;;;;4894880;29;20553;-82
2023/04/10 04:13:36;;;;;;;12.93;11.77;;;2.90;99.90;;;;;;4898262;29;20201;-81
2023/04/10 04:16:12;;;;;;;13.30;11.97;;;3.00;99.90;;;;;;4898596;29;20232;-82
2023/04/10 04:18:48;;;;;;;14.83;13.23;;;2.90;99.90;;;;;;4898426;29;20208;-82
2023/04/10 04:21:30;;;;;;;13.60;12.30;;;3.00;99.90;;;;;;4899861;29;20291;-82
2023/04/10 04:24:15;;;;;;;14.43;12.97;;;3.00;99.90;;;;;;4910612;29;20771;-80
2023/04/10 04:26:55;;;;;;;13.07;11.87;;;3.00;99.90;;;;;;4900741;29;20656;-83
2023/04/10 04:29:48;;;;;;;13.77;12.37;;;2.90;99.90;;;;;;4900637;29;20209;-79
2023/04/10 04:32:36;;;;;;;14.40;13.00;;;2.90;99.90;;;;;;4902619;29;20244;-78
2023/04/10 04:35:17;;;;;;;16.10;14.43;;;2.80;99.90;;;;;;4899560;29;20224;-78
2023/04/10 04:38:10;;;;;;;14.40;12.97;;;2.90;99.90;;;;;;4885928;29;20703;-78
2023/04/10 04:41:07;;;;;;;13.70;12.30;;;2.80;99.90;;;;;;4856499;29;20214;-78
2023/04/10 04:43:54;;;;;;;14.53;13.23;;;2.90;99.90;;;;;;4892585;29;20719;-78
2023/04/10 04:46:28;;;;;;;14.80;13.40;;;2.90;99.90;;;;;;4899965;29;20710;-80
2023/04/10 04:49:15;;;;;;;15.13;13.63;;;2.90;99.90;;;;;;4901347;29;20206;-78
2023/04/10 04:51:47;;;;;;;14.77;13.37;;;2.90;99.90;;;;;;4897547;29;20866;-78
2023/04/10 04:54:27;;;;;;;14.63;13.23;;;2.90;99.90;;;;;;4905713;29;20275;-78
2023/04/10 04:57:12;;;;;;;16.57;14.87;;;2.90;99.90;;;;;;4897594;29;20204;-78
2023/04/10 05:00:15;;;;;;;14.37;12.97;;;3.00;99.90;;;;;;4836029;29;20203;-78
2023/04/10 05:02:52;;;;;;;15.80;13.63;;;3.10;99.90;;;;;;4893063;29;20231;-78
2023/04/10 05:05:39;;;;;;;14.33;12.93;;;3.10;99.90;;;;;;4898920;29;20762;-78
2023/04/10 05:08:25;;;;;;;15.10;13.60;;;3.10;99.90;;;;;;4895816;29;20215;-78
2023/04/10 05:10:58;;;;;;;14.47;12.97;;;3.20;99.90;;;;;;4900203;29;20228;-78
2023/04/10 05:13:43;;;;;;;13.97;12.67;;;3.20;99.90;;;;;;4898642;29;20211;-78
2023/04/10 05:16:33;;;;;;;15.03;13.53;;;3.30;99.90;;;;;;4883770;29;20281;-78
2023/04/10 05:19:16;;;;;;;13.50;12.30;;;3.50;99.90;;;;;;4895235;29;20758;-78
2023/04/10 05:22:10;;;;;;;15.33;13.83;;;3.60;99.90;;;;;;4877559;29;20288;-79
2023/04/10 05:24:57;;;;;;;14.20;12.90;;;3.70;99.90;;;;;;4871866;29;20260;-78
2023/04/10 05:27:42;;;;;;;14.20;12.90;;;3.80;99.90;;;;;;4894185;29;20709;-78
2023/04/10 05:30:26;;;;;;;16.23;14.63;;;3.90;99.90;;;;;;4895543;29;20221;-78
2023/04/10 05:33:11;;;;;;;15.20;13.70;;;4.10;99.90;;;;;;4895234;29;20196;-78
2023/04/10 05:35:57;;;;;;;15.37;13.97;;;4.40;99.90;;;;;;4893974;29;20252;-78
2023/04/10 05:38:39;;;;;;;14.90;13.50;;;4.70;99.90;;;;;;4897585;29;20208;-78
2023/04/10 05:41:35;;;;;;;15.57;14.17;;;5.00;99.90;;;;;;4849768;29;20294;-78
2023/04/10 05:44:34;;;;;;;14.43;13.03;;;5.30;99.90;;;;;;4869186;29;20236;-78
2023/04/10 05:47:36;;;;;;;14.43;12.93;;;5.60;99.90;;;;;;4882100;29;20703;-78
2023/04/10 05:50:26;;;;;;;15.33;13.83;;;5.90;99.90;;;;;;4893492;29;20216;-78
2023/04/10 05:53:13;;;;;;;14.73;13.43;;;6.10;99.90;;;;;;4892964;29;20201;-78
2023/04/10 05:56:00;;;;;;;14.53;13.23;;;6.20;99.90;;;;;;4893282;29;20237;-78
2023/04/10 05:58:45;;;;;;;14.60;13.20;;;6.20;99.90;;;;;;4891569;29;20220;-78
2023/04/10 06:01:15;;;;;;;14.70;13.33;;;6.40;99.90;;;;;;4896687;29;20293;-78
2023/04/10 06:03:47;;;;;;;13.67;12.40;;;6.70;99.90;;;;;;4895623;29;20254;-78
2023/04/10 06:06:16;;;;;;;14.20;12.97;;;6.90;99.90;;;;;;4894675;29;20685;-78
2023/04/10 06:08:43;;;;;;;14.60;13.30;;;7.20;99.90;;;;;;4892132;29;20204;-78
2023/04/10 06:11:11;;;;;;;14.90;13.50;;;7.30;99.90;;;;;;4894077;29;20204;-78
2023/04/10 06:13:39;;;;;;;15.07;13.67;;;7.30;99.90;;;;;;4892490;29;20675;-79
2023/04/10 06:16:07;;;;;;;13.83;12.60;;;7.30;99.90;;;;;;4896526;29;20702;-78
2023/04/10 06:18:34;;;;;;;14.17;12.90;;;7.50;99.90;;;;;;4897711;29;20231;-78
2023/04/10 06:21:01;;;;;;;13.77;12.53;;;7.50;99.90;;;;;;4894205;29;20210;-78
2023/04/10 06:23:28;;;;;;;13.60;12.40;;;7.50;99.90;;;;;;4894557;29;20268;-78
2023/04/10 06:25:55;;;;;;;13.57;12.37;;;7.60;99.90;;;;;;4895369;29;20227;-78
2023/04/10 06:28:24;;;;;;;14.20;12.80;;;7.80;99.90;;;;;;4895020;29;20371;-78
2023/04/10 06:30:56;;;;;;;13.37;12.17;;;7.80;99.90;;;;;;4892582;29;20205;-78
2023/04/10 06:33:30;;;;;;;14.57;13.27;;;8.00;99.90;;;;;;4898098;29;20200;-78
2023/04/10 06:35:57;;;;;;;13.70;12.50;;;7.90;99.90;;;;;;4897461;29;20225;-80
2023/04/10 06:38:24;;;;;;;14.07;12.77;;;7.90;99.90;;;;;;4895038;29;20197;-78
2023/04/10 06:40:51;;;;;;;13.87;12.60;;;7.90;99.90;;;;;;4894371;29;20224;-78
2023/04/10 06:43:18;;;;;;;13.47;12.27;;;8.00;99.90;;;;;;4894855;29;20212;-79
2023/04/10 06:45:47;;;;;;;13.23;12.00;;;8.10;99.90;;;;;;4893970;29;20623;-78
2023/04/10 06:48:14;;;;;;;13.40;12.20;;;8.20;99.90;;;;;;4897008;29;20204;-80
2023/04/10 06:50:40;;;;;;;14.37;13.17;;;8.30;99.90;;;;;;4914653;29;20251;-82
2023/04/10 06:53:07;;;;;;;13.53;12.27;;;8.20;99.90;;;;;;4889031;29;20671;-84
2023/04/10 06:55:36;;;;;;;14.17;12.87;;;8.30;99.90;;;;;;4892041;29;20268;-84
2023/04/10 06:58:03;;;;;;;14.30;13.00;;;8.60;99.90;;;;;;4883354;29;20209;-83
2023/04/10 07:00:30;;;;;;;13.37;12.20;;;8.90;99.90;;;;;;4899927;29;20273;-81
2023/04/10 07:02:59;;;;;;;12.53;11.43;;;9.10;99.90;;;;;;4892402;29;20233;-81
2023/04/10 07:05:25;;;;;;;13.90;12.70;;;9.30;99.90;;;;;;4896197;29;20227;-80
2023/04/10 07:07:52;;;;;;;12.97;11.67;;;9.60;99.90;;;;;;4894529;29;20346;-79
2023/04/10 07:10:19;;;;;;;12.50;11.30;;;9.80;99.90;;;;;;4889931;29;20204;-80
2023/04/10 07:12:46;;;;;;;11.67;10.57;;;10.10;99.90;;;;;;4895811;29;20204;-80
2023/04/10 07:15:13;;;;;;;9.13;7.47;;;10.50;99.90;;;;;;4888237;29;20280;-78
2023/04/10 07:17:39;;;;;;;8.90;8.00;;;10.90;99.90;;;;;;4886899;29;20270;-79
2023/04/10 07:20:09;;;;;;;9.13;7.30;;;11.30;99.90;;;;;;4891449;29;20207;-79
2023/04/10 07:22:36;;;;;;;10.10;8.00;;;11.70;99.90;;;;;;4897437;29;20746;-78
2023/04/10 07:25:03;;;;;;;9.47;8.57;;;12.30;99.90;;;;;;4891898;29;20225;-79
2023/04/10 07:27:30;;;;;;;9.07;8.20;;;12.70;99.90;;;;;;4898306;29;20204;-79
2023/04/10 07:29:57;;;;;;;10.10;9.00;;;13.20;99.90;;;;;;4888602;29;20217;-81
2023/04/10 07:32:23;;;;;;;9.40;8.50;;;13.50;99.90;;;;;;4895052;29;20614;-81
2023/04/10 07:34:50;;;;;;;9.70;6.80;;;13.90;99.90;;;;;;4905355;29;20291;-78
2023/04/10 07:37:18;;;;;;;8.23;6.57;;;14.30;99.90;;;;;;4888409;29;20207;-78
2023/04/10 07:39:46;;;;;;;11.63;10.53;;;14.60;99.90;;;;;;4899498;29;20203;-79
2023/04/10 07:42:12;;;;;;;8.23;6.80;;;14.60;99.90;;;;;;4896876;29;20204;-78
2023/04/10 07:44:39;;;;;;;8.00;6.87;;;14.90;99.90;;;;;;4900709;29;20758;-78
2023/04/10 07:47:06;;;;;;;7.93;6.70;;;15.20;99.90;;;;;;4895327;29;20211;-78
2023/04/10 07:49:33;;;;;;;8.37;7.57;;;15.10;99.90;;;;;;4898291;29;20204;-79
2023/04/10 07:52:00;;;;;;;8.57;7.67;;;15.40;99.90;;;;;;4894230;29;20761;-81
2023/04/10 07:54:31;;;;;;;8.60;7.33;;;15.70;99.90;;;;;;4893176;29;20216;-78
2023/04/10 07:56:58;;;;;;;8.23;7.43;;;15.70;99.90;;;;;;4897777;29;20203;-78
2023/04/10 07:59:25;;;;;;;7.40;6.60;;;15.80;99.90;;;;;;4894227;29;20201;-80
2023/04/10 08:01:52;;;;;;;7.40;6.60;;;16.20;99.90;;;;;;4897090;29;20228;-78
2023/04/10 08:04:19;;;;;;;5.97;5.37;;;16.50;99.90;;;;;;4893445;29;20304;-79
2023/04/10 08:06:46;;;;;;;7.07;6.37;;;16.70;99.90;;;;;;4895085;29;20205;-80
2023/04/10 08:09:12;;;;;;;6.40;5.80;;;16.90;99.90;;;;;;4894761;29;20212;-82
2023/04/10 08:11:40;;;;;;;5.47;4.87;;;17.00;99.90;;;;;;4895594;29;20201;-83
2023/04/10 08:14:07;;;;;;;5.33;4.63;;;17.10;99.90;;;;;;4893390;29;20749;-87
2023/04/10 08:16:35;;;;;;;5.17;4.67;;;17.40;99.90;;;;;;4889548;29;20203;-86
2023/04/10 08:19:03;;;;;;;6.33;4.60;;;18.00;99.90;;;;;;4905159;29;20205;-85
2023/04/10 08:21:31;;;;;;;4.63;4.13;;;18.50;99.90;;;;;;4895573;29;20730;-84
2023/04/10 08:24:00;;;;;;;4.57;4.17;;;18.50;99.90;;;;;;4898440;29;20223;-78
2023/04/10 08:26:28;;;;;;;4.10;3.70;;;18.20;99.90;;;;;;4896948;29;20216;-78
2023/04/10 08:28:57;;;;;;;3.50;3.20;;;18.10;99.00;;;;;;4901776;29;20211;-78
2023/04/10 08:31:26;;;;;;;4.47;3.40;;;18.30;97.70;;;;;;4899256;29;20279;-80
2023/04/10 08:33:52;;;;;;;3.97;3.47;;;18.00;96.90;;;;;;4897638;29;20204;-79
2023/04/10 08:36:20;;;;;;;3.90;3.50;;;18.00;99.10;;;;;;4893505;29;20237;-79
2023/04/10 08:38:47;;;;;;;3.63;3.30;;;18.20;97.80;;;;;;4894714;29;20702;-79
2023/04/10 08:41:15;;;;;;;4.27;3.87;;;18.50;95.80;;;;;;4898824;29;20252;-80
2023/04/10 08:43:44;;;;;;;3.70;3.37;;;18.60;95.90;;;;;;4907638;29;20240;-79
2023/04/10 08:46:13;;;;;;;3.80;3.37;;;18.50;96.60;;;;;;4902302;29;20248;-78
2023/04/10 08:48:46;;;;;;;3.67;3.37;;;18.60;97.30;;;;;;4915682;29;20741;-79
2023/04/10 08:51:17;;;;;;;3.40;3.03;;;18.70;95.20;;;;;;4913323;29;20208;-78
2023/04/10 08:53:44;;;;;;;3.90;3.00;;;18.40;93.80;;;;;;4905747;29;20264;-79
2023/04/10 08:56:14;;;;;;;3.30;3.00;;;18.30;93.70;;;;;;4913479;29;20654;-79
2023/04/10 08:58:42;;;;;;;4.47;2.87;;;18.60;93.60;;;;;;4899665;29;20224;-79
2023/04/10 09:01:16;;;;;;;2.97;2.77;;;18.70;93.40;;;;;;4916259;29;20635;-79
2023/04/10 09:04:01;;;;;;;2.83;2.63;;;18.80;93.40;;;;;;4906232;29;20653;-79
2023/04/10 09:10:42;;;;;;;3.10;2.80;;;19.40;91.80;;;;;;4882040;29;20831;-79
2023/04/10 09:21:22;;;;;;;2.87;2.67;;;19.60;92.20;;;;;;4832076;29;20213;-79
2023/04/10 09:24:59;;;;;;;;;;;;;;;;;;;;;
2023/04/10 09:28:38;;;;;;;3.17;2.87;;;19.70;88.00;;;;;;4899003;29;20204;-79
2023/04/10 09:31:28;;;;;;;3.17;2.87;;;19.70;89.40;;;;;;4880879;29;20205;-79
2023/04/10 09:37:17;;;;;;;2.80;2.60;;;19.90;89.10;;;;;;4906142;29;20197;-80
2023/04/10 09:40:03;;;;;;;3.30;3.00;;;20.10;89.00;;;;;;4915608;29;20200;-79
2023/04/10 09:46:28;;;;;;;3.17;2.77;;;20.30;84.80;;;;;;4906468;29;20300;-79
2023/04/10 09:49:18;;;;;;;2.93;2.73;;;20.10;82.10;;;;;;4905774;29;20211;-79
2023/04/10 09:52:24;;;;;;;2.90;2.70;;;19.90;85.20;;;;;;4902090;29;20205;-78
2023/04/10 09:55:33;;;;;;;;;;;;;;;;;;;;;
2023/04/10 09:58:57;;;;;;;4.00;3.70;;;19.70;83.10;;;;;;4910027;29;20770;-79
2023/04/10 10:02:06;;;;;;;3.30;3.10;;;19.30;81.10;;;;;;4894667;29;20197;-79
2023/04/10 10:04:56;;;;;;;4.23;3.97;;;19.20;81.90;;;;;;4871572;29;20300;-80
2023/04/10 10:07:52;;;;;;;3.47;3.27;;;19.30;84.50;;;;;;4907759;29;20209;-79
2023/04/10 10:18:42;;;;;;;3.30;3.10;;;19.30;80.30;;;;;;4878370;29;20716;-79
2023/04/10 10:21:34;;;;;;;2.40;2.20;;;19.00;77.90;;;;;;4866962;29;20232;-79
2023/04/10 10:24:24;;;;;;;2.40;2.20;;;19.00;79.20;;;;;;4888144;29;20280;-79
2023/04/10 10:30:26;;;;;;;;;;;;;;;;;;;;;
2023/04/10 10:33:08;;;;;;;2.47;2.27;;;19.70;80.30;;;;;;4897739;29;20295;-79
2023/04/10 10:38:30;;;;;;;2.30;2.20;;;19.50;75.60;;;;;;4894304;29;20204;-78
2023/04/10 10:42:11;;;;;;;2.20;2.10;;;19.10;72.70;;;;;;4905746;29;20231;-78
2023/04/10 10:44:43;;;;;;;1.87;1.70;;;18.80;72.00;;;;;;4889610;29;20263;-79
2023/04/10 10:47:17;;;;;;;1.90;1.80;;;18.80;74.30;;;;;;4899884;29;20212;-79
2023/04/10 10:50:04;;;;;;;1.93;1.83;;;19.00;75.60;;;;;;4904218;29;20275;-79
2023/04/10 10:52:50;;;;;;;1.97;1.87;;;19.00;72.30;;;;;;4902533;29;20208;-79
2023/04/10 10:55:52;;;;;;;1.80;1.70;;;18.90;71.10;;;;;;4899901;29;20853;-79
2023/04/10 10:58:57;;;;;;;1.80;1.70;;;18.90;71.80;;;;;;4893546;29;20452;-79
2023/04/10 11:05:02;;;;;;;1.80;1.70;;;19.40;73.00;;;;;;4882436;29;20241;-82
2023/04/10 11:08:10;;;;;;;2.57;2.37;;;19.20;70.30;;;;;;4901747;29;20204;-81
2023/04/10 11:11:00;;;;;;;2.57;2.40;;;19.30;72.90;;;;;;4888996;29;20270;-80
2023/04/10 11:13:27;;;;;;;2.40;2.30;;;19.40;73.40;;;;;;4891686;29;20283;-80
2023/04/10 11:15:56;;;;;;;2.40;2.30;;;19.10;69.70;;;;;;4889660;29;20228;-81
2023/04/10 11:19:07;;;;;;;2.80;2.60;;;19.10;72.10;;;;;;4884051;29;20754;-80
2023/04/10 11:21:36;;;;;;;2.70;2.60;;;18.90;71.00;;;;;;4885915;29;20283;-80
2023/04/10 11:24:04;;;;;;;2.90;2.70;;;18.90;73.40;;;;;;4893402;29;20669;-80
2023/04/10 11:26:41;;;;;;;3.20;3.00;;;19.10;73.90;;;;;;4893638;29;20284;-80
2023/04/10 11:29:40;;;;;;;3.00;2.80;;;19.10;74.00;;;;;;4887170;29;20712;-82
2023/04/10 11:32:08;;;;;;;2.50;2.30;;;19.10;72.70;;;;;;4885078;29;20213;-82
2023/04/10 11:34:44;;;;;;;2.30;2.20;;;18.90;72.70;;;;;;4895596;29;20227;-82
2023/04/10 11:37:21;;;;;;;2.33;2.23;;;18.70;73.10;;;;;;4890094;29;20218;-81
2023/04/10 11:39:48;;;;;;;2.87;2.67;;;18.50;71.80;;;;;;4895276;29;20645;-82
2023/04/10 11:42:22;;;;;;;2.97;2.77;;;18.50;71.20;;;;;;4900135;29;20277;-81
2023/04/10 11:44:50;;;;;;;2.33;2.13;;;18.30;71.80;;;;;;4886550;29;20279;-82
2023/04/10 11:47:17;;;;;;;2.80;2.60;;;18.20;71.80;;;;;;4894065;29;20256;-80
2023/04/10 11:50:09;;;;;;;3.20;3.00;;;18.20;74.20;;;;;;4903043;29;20212;-80
2023/04/10 11:52:39;;;;;;;2.80;2.70;;;18.10;71.50;;;;;;4897328;29;20332;-80
2023/04/10 11:55:13;;;;;;;3.13;2.93;;;18.20;75.20;;;;;;4897310;29;20224;-80
2023/04/10 11:57:53;;;;;;;2.30;2.20;;;18.10;73.40;;;;;;4895288;29;20208;-81
2023/04/10 12:00:32;;;;;;;2.90;2.70;;;18.00;74.70;;;;;;4894914;29;20203;-81
2023/04/10 12:03:35;;;;;;;3.37;3.17;;;18.10;75.20;;;;;;4902868;29;20286;-81
2023/04/10 12:06:03;;;;;;;3.50;3.20;;;18.00;71.50;;;;;;4892283;29;20283;-80
2023/04/10 12:08:31;;;;;;;2.93;2.73;;;17.90;72.60;;;;;;4889781;29;20202;-79
2023/04/10 12:10:58;;;;;;;2.97;2.80;;;17.70;72.10;;;;;;4890627;29;20264;-80
2023/04/10 12:13:25;;;;;;;3.53;3.23;;;17.70;74.00;;;;;;4895110;29;20235;-79
2023/04/10 12:15:53;;;;;;;3.40;3.10;;;17.80;74.10;;;;;;4893689;29;20243;-80
2023/04/10 12:18:20;;;;;;;3.47;3.17;;;17.90;74.50;;;;;;4899516;29;20203;-79
2023/04/10 12:20:47;;;;;;;3.20;3.00;;;17.90;75.20;;;;;;4895250;29;20228;-79
2023/04/10 12:23:16;;;;;;;3.30;3.10;;;18.00;74.90;;;;;;4896114;29;20612;-79
2023/04/10 12:25:43;;;;;;;3.07;2.87;;;18.00;74.60;;;;;;4900049;29;20627;-79
2023/04/10 12:28:33;;;;;;;3.17;2.97;;;17.90;74.70;;;;;;4884901;29;20215;-78
2023/04/10 12:31:40;;;;;;;3.23;2.93;;;17.80;76.00;;;;;;4896659;29;20298;-78
2023/04/10 12:34:25;;;;;;;3.23;2.93;;;17.80;76.60;;;;;;4889581;29;20753;-78
2023/04/10 12:37:38;;;;;;;;;;;;;;;;;;;;;
2023/04/10 12:40:40;;;;;;;3.50;3.20;;;17.80;74.30;;;;;;4892143;29;20207;-80
2023/04/10 12:43:33;;;;;;;3.37;3.07;;;17.80;75.70;;;;;;4841875;29;20614;-79
2023/04/10 12:46:07;;;;;;;3.47;3.20;;;17.90;75.60;;;;;;4846740;29;20245;-80
2023/04/10 12:48:39;;;;;;;3.20;3.00;;;18.10;75.80;;;;;;4906677;29;20199;-79
2023/04/10 12:51:07;;;;;;;3.40;3.10;;;18.10;77.30;;;;;;4896310;29;20206;-79
2023/04/10 12:57:38;;;;;;;3.03;2.72;;;18.40;74.40;;;;;;4784659;29;20494;-80
2023/04/10 13:00:09;;;;;;;2.50;2.30;;;18.70;73.50;;;;;;4851153;29;20664;-78
2023/04/10 13:02:48;;;;;;;4.17;2.60;;;19.00;73.40;;;;;;4891516;29;20212;-79
2023/04/10 13:05:15;;;;;;;2.60;2.40;;;19.00;72.70;;;;;;4894901;29;20223;-79
2023/04/10 13:07:51;;;;;;;2.43;2.20;;;18.90;74.80;;;;;;4899083;29;20211;-79
2023/04/10 13:10:18;;;;;;;2.80;2.40;;;19.10;75.90;;;;;;4900052;29;20196;-79
2023/04/10 13:12:46;;;;;;;2.03;1.93;;;19.10;76.50;;;;;;4893696;29;20205;-78
2023/04/10 13:15:17;;;;;;;2.63;2.40;;;19.20;77.30;;;;;;4889600;29;20245;-79
2023/04/10 13:17:52;;;;;;;2.63;2.40;;;19.10;76.50;;;;;;4893439;29;20220;-79
2023/04/10 13:20:22;;;;;;;2.73;2.53;;;19.10;75.70;;;;;;4899417;29;20219;-79
2023/04/10 13:22:49;;;;;;;2.80;2.60;;;19.30;77.10;;;;;;4893807;29;20694;-78
2023/04/10 13:25:19;;;;;;;2.80;2.60;;;19.30;77.10;;;;;;4898809;29;20730;-79
2023/04/10 13:27:48;;;;;;;2.60;2.40;;;19.50;76.40;;;;;;4901420;29;20212;-79
2023/04/10 13:30:16;;;;;;;2.50;2.30;;;19.60;73.70;;;;;;4894735;29;20200;-79
2023/04/10 13:32:55;;;;;;;2.30;2.20;;;19.70;71.10;;;;;;4890157;29;20208;-79
2023/04/10 13:35:22;;;;;;;2.30;2.20;;;19.70;73.00;;;;;;4898654;29;20305;-79
2023/04/10 13:37:51;;;;;;;2.33;2.20;;;19.90;74.40;;;;;;4900750;29;20204;-79
2023/04/10 13:40:21;;;;;;;2.13;2.03;;;19.90;73.40;;;;;;4897181;29;20275;-78
2023/04/10 13:42:48;;;;;;;2.23;2.10;;;19.90;73.10;;;;;;4895078;29;20205;-78
2023/04/10 13:45:16;;;;;;;1.90;1.80;;;20.00;71.60;;;;;;4894140;29;20236;-78
2023/04/10 13:47:43;;;;;;;2.40;2.20;;;20.10;72.90;;;;;;4888717;29;20220;-78
2023/04/10 13:50:11;;;;;;;2.30;2.10;;;19.90;72.30;;;;;;4904532;29;20200;-78
2023/04/10 13:52:37;;;;;;;2.53;2.33;;;19.80;72.00;;;;;;4896779;29;20200;-79
2023/04/10 13:55:07;;;;;;;2.70;2.50;;;19.90;73.60;;;;;;4894010;29;20801;-80
2023/04/10 13:57:34;;;;;;;2.30;2.10;;;19.80;73.60;;;;;;4896176;29;20835;-80
2023/04/10 14:00:03;;;;;;;2.50;2.30;;;19.80;74.70;;;;;;4894158;29;20233;-80
2023/04/10 14:02:40;;;;;;;2.30;2.20;;;19.80;76.50;;;;;;4897816;29;20283;-80
2023/04/10 14:05:08;;;;;;;2.20;2.00;;;19.80;77.20;;;;;;4890623;29;20231;-79